createdAt,value
2023-02-11T00:02:27.943Z,100.00
2023-02-11T00:04:55.641Z,100.00
2023-02-11T00:07:23.371Z,100.00
2023-02-11T00:09:52.568Z,100.00
2023-02-11T00:12:20.768Z,100.00
2023-02-11T00:14:48.808Z,100.00
2023-02-11T00:17:17.044Z,100.00
2023-02-11T00:19:45.215Z,100.00
2023-02-11T00:22:12.928Z,100.00
2023-02-11T00:24:41.436Z,100.00
2023-02-11T00:27:15.518Z,100.00
2023-02-11T00:29:47.894Z,100.00
2023-02-11T00:32:25.460Z,100.00
2023-02-11T00:34:55.157Z,100.00
2023-02-11T00:37:23.649Z,100.00
2023-02-11T00:39:52.696Z,100.00
2023-02-11T00:42:21.850Z,99.97
2023-02-11T00:44:50.544Z,99.46
2023-02-11T00:47:18.726Z,99.53
2023-02-11T00:49:47.159Z,99.97
2023-02-11T00:52:15.633Z,98.83
2023-02-11T00:54:44.383Z,99.09
2023-02-11T00:57:12.648Z,98.75
2023-02-11T00:59:42.148Z,98.86
2023-02-11T01:02:11.805Z,98.39
2023-02-11T01:04:41.239Z,99.10
2023-02-11T01:07:09.298Z,99.05
2023-02-11T01:09:39.716Z,98.06
2023-02-11T01:12:07.869Z,97.64
2023-02-11T01:14:35.678Z,98.27
2023-02-11T01:17:05.660Z,98.08
2023-02-11T01:19:34.172Z,97.59
2023-02-11T01:22:02.017Z,97.21
2023-02-11T01:24:29.704Z,97.92
2023-02-11T01:26:57.829Z,98.18
2023-02-11T01:29:25.683Z,98.42
2023-02-11T01:31:53.436Z,98.76
2023-02-11T01:34:22.416Z,97.78
2023-02-11T01:36:50.030Z,98.11
2023-02-11T01:39:17.873Z,98.54
2023-02-11T01:41:45.490Z,98.00
2023-02-11T01:44:24.396Z,98.77
2023-02-11T01:46:52.635Z,97.91
2023-02-11T01:49:24.720Z,98.15
2023-02-11T01:51:56.517Z,97.82
2023-02-11T01:54:45.736Z,98.21
2023-02-11T01:57:25.893Z,98.06
2023-02-11T02:00:00.731Z,98.17
2023-02-11T02:02:33.809Z,98.33
2023-02-11T02:05:06.345Z,98.07
2023-02-11T02:07:37.609Z,98.58
2023-02-11T02:10:08.947Z,98.15
2023-02-11T02:12:36.545Z,98.20
2023-02-11T02:15:19.704Z,98.19
2023-02-11T02:17:55.722Z,98.46
2023-02-11T02:21:01.400Z,98.30
2023-02-11T02:23:47.156Z,97.62
2023-02-11T02:26:34.452Z,97.71
2023-02-11T02:29:38.151Z,98.15
2023-02-11T02:32:21.913Z,98.19
2023-02-11T02:34:52.211Z,98.04
2023-02-11T02:37:22.971Z,97.80
2023-02-11T02:39:51.399Z,98.06
2023-02-11T02:42:19.622Z,96.74
2023-02-11T02:44:49.681Z,97.22
2023-02-11T02:47:18.660Z,96.75
2023-02-11T02:49:46.301Z,97.26
2023-02-11T02:52:23.628Z,97.67
2023-02-11T02:55:10.302Z,97.16
2023-02-11T02:57:44.963Z,97.88
2023-02-11T03:00:18.203Z,97.12
2023-02-11T03:02:55.193Z,97.16
2023-02-11T03:05:28.739Z,97.41
2023-02-11T03:07:59.640Z,96.88
2023-02-11T03:10:30.048Z,96.26
2023-02-11T03:12:58.412Z,96.82
2023-02-11T03:15:28.455Z,97.43
2023-02-11T03:17:59.992Z,97.29
2023-02-11T03:20:28.628Z,97.76
2023-02-11T03:22:58.634Z,97.21
2023-02-11T03:25:30.539Z,97.64
2023-02-11T03:28:04.255Z,97.63
2023-02-11T03:30:37.044Z,96.90
2023-02-11T03:33:09.939Z,96.52
2023-02-11T03:35:40.845Z,97.17
2023-02-11T03:38:10.677Z,96.55
2023-02-11T03:40:40.131Z,97.02
2023-02-11T03:43:10.397Z,97.47
2023-02-11T03:45:43.698Z,97.58
2023-02-11T03:48:17.000Z,96.76
2023-02-11T03:50:45.804Z,96.96
2023-02-11T03:53:14.315Z,97.03
2023-02-11T03:55:42.613Z,97.49
2023-02-11T03:58:10.387Z,97.50
2023-02-11T04:00:40.906Z,97.09
2023-02-11T04:03:08.866Z,97.26
2023-02-11T04:05:38.129Z,98.20
2023-02-11T04:08:06.151Z,97.69
2023-02-11T04:10:34.022Z,97.97
2023-02-11T04:13:01.679Z,97.77
2023-02-11T04:15:29.286Z,98.46
2023-02-11T04:17:56.926Z,98.62
2023-02-11T04:20:24.489Z,98.67
2023-02-11T04:22:53.425Z,98.89
2023-02-11T04:25:21.332Z,98.76
2023-02-11T04:27:48.930Z,98.22
2023-02-11T04:30:16.514Z,98.25
2023-02-11T04:32:44.091Z,98.44
2023-02-11T04:35:11.714Z,98.01
2023-02-11T04:37:39.306Z,98.27
2023-02-11T04:40:09.618Z,98.59
2023-02-11T04:42:37.240Z,99.32
2023-02-11T04:45:05.433Z,98.82
2023-02-11T04:47:32.977Z,99.54
2023-02-11T04:50:00.735Z,99.50
2023-02-11T04:52:28.415Z,98.92
2023-02-11T04:54:55.992Z,97.92
2023-02-11T04:57:24.984Z,98.33
2023-02-11T04:59:52.640Z,99.03
2023-02-11T05:02:20.270Z,99.85
2023-02-11T05:04:48.027Z,99.96
2023-02-11T05:07:15.646Z,100.00
2023-02-11T05:09:43.310Z,100.00
2023-02-11T05:12:11.025Z,100.00
2023-02-11T05:14:40.129Z,100.00
2023-02-11T05:17:07.692Z,100.00
2023-02-11T05:19:35.252Z,100.00
2023-02-11T05:22:03.760Z,100.00
2023-02-11T05:24:32.294Z,100.00
2023-02-11T05:27:00.002Z,100.00
2023-02-11T05:29:27.615Z,99.83
2023-02-11T05:31:56.610Z,100.00
2023-02-11T05:34:24.201Z,99.73
2023-02-11T05:36:51.778Z,99.62
2023-02-11T05:39:19.411Z,99.45
2023-02-11T05:41:47.018Z,99.55
2023-02-11T05:44:14.663Z,99.75
2023-02-11T05:46:42.321Z,99.76
2023-02-11T05:49:11.319Z,100.00
2023-02-11T05:51:39.084Z,100.00
2023-02-11T05:54:06.889Z,99.92
2023-02-11T05:56:34.460Z,100.00
2023-02-11T05:59:02.028Z,100.00
2023-02-11T06:01:30.479Z,100.00
2023-02-11T06:03:58.191Z,99.84
2023-02-11T06:06:27.524Z,100.00
2023-02-11T06:08:56.363Z,99.66
2023-02-11T06:11:23.978Z,99.62
2023-02-11T06:13:51.888Z,99.73
2023-02-11T06:16:19.538Z,99.53
2023-02-11T06:18:47.168Z,99.25
2023-02-11T06:21:14.822Z,100.00
2023-02-11T06:23:44.073Z,100.00
2023-02-11T06:26:18.370Z,100.00
2023-02-11T06:28:46.329Z,99.71
2023-02-11T06:31:14.311Z,100.00
2023-02-11T06:33:42.212Z,100.00
2023-02-11T06:36:14.097Z,100.00
2023-02-11T06:38:43.206Z,100.00
2023-02-11T06:41:11.412Z,100.00
2023-02-11T06:43:39.559Z,100.00
2023-02-11T06:46:07.455Z,100.00
2023-02-11T06:48:35.477Z,100.00
2023-02-11T06:51:04.689Z,100.00
2023-02-11T06:53:32.407Z,100.00
2023-02-11T06:56:05.142Z,100.00
2023-02-11T06:58:32.869Z,100.00
2023-02-11T07:01:00.986Z,99.99
2023-02-11T07:03:28.617Z,100.00
2023-02-11T07:05:56.336Z,100.00
2023-02-11T07:08:23.949Z,100.00
2023-02-11T07:10:51.556Z,100.00
2023-02-11T07:13:20.534Z,100.00
2023-02-11T07:15:48.244Z,100.00
2023-02-11T07:18:16.022Z,100.00
2023-02-11T07:20:43.679Z,100.00
2023-02-11T07:23:11.309Z,100.00
2023-02-11T07:25:39.143Z,100.00
2023-02-11T07:28:06.990Z,100.00
2023-02-11T07:30:36.072Z,100.00
2023-02-11T07:33:03.752Z,100.00
2023-02-11T07:35:31.310Z,99.88
2023-02-11T07:37:58.876Z,99.05
2023-02-11T07:40:26.459Z,99.44
2023-02-11T07:42:54.011Z,99.01
2023-02-11T07:45:21.629Z,99.24
2023-02-11T07:47:50.591Z,98.63
2023-02-11T07:50:18.320Z,98.06
2023-02-11T07:52:46.130Z,98.43
2023-02-11T07:55:13.736Z,97.94
2023-02-11T07:57:41.560Z,97.25
2023-02-11T08:00:10.259Z,97.82
2023-02-11T08:02:38.056Z,98.04
2023-02-11T08:05:07.811Z,98.12
2023-02-11T08:07:35.511Z,97.85
2023-02-11T08:10:03.093Z,97.98
2023-02-11T08:12:31.433Z,97.77
2023-02-11T08:14:59.110Z,97.79
2023-02-11T08:17:26.921Z,97.98
2023-02-11T08:19:54.715Z,97.41
2023-02-11T08:22:23.778Z,97.95
2023-02-11T08:24:52.474Z,98.33
2023-02-11T08:27:20.368Z,98.77
2023-02-11T08:29:48.046Z,98.55
2023-02-11T08:32:15.770Z,97.81
2023-02-11T08:34:43.614Z,97.36
2023-02-11T08:37:11.319Z,96.69
2023-02-11T08:39:40.287Z,96.69
2023-02-11T08:42:08.018Z,96.36
2023-02-11T08:44:35.619Z,95.10
2023-02-11T08:47:03.370Z,94.67
2023-02-11T08:49:32.292Z,93.85
2023-02-11T08:52:03.797Z,93.23
2023-02-11T08:54:32.168Z,93.22
2023-02-11T08:57:02.394Z,93.51
2023-02-11T08:59:30.189Z,92.71
2023-02-11T09:01:58.014Z,93.38
2023-02-11T09:04:25.619Z,93.39
2023-02-11T09:06:53.357Z,93.68
2023-02-11T09:09:20.952Z,92.94
2023-02-11T09:11:48.611Z,92.63
2023-02-11T09:14:20.842Z,91.94
2023-02-11T09:16:49.023Z,91.65
2023-02-11T09:19:17.158Z,91.31
2023-02-11T09:21:44.862Z,91.05
2023-02-11T09:24:12.824Z,90.60
2023-02-11T09:26:43.727Z,90.53
2023-02-11T09:29:11.458Z,90.39
2023-02-11T09:31:40.518Z,88.95
2023-02-11T09:34:08.823Z,89.02
2023-02-11T09:36:38.563Z,88.63
2023-02-11T09:39:07.923Z,87.66
2023-02-11T09:42:15.471Z,87.86
2023-02-11T09:44:46.179Z,88.30
2023-02-11T09:47:24.607Z,89.13
2023-02-11T09:49:54.100Z,88.67
2023-02-11T09:52:27.283Z,90.13
2023-02-11T09:54:57.013Z,88.97
2023-02-11T09:57:34.737Z,88.51
2023-02-11T10:00:02.921Z,89.36
2023-02-11T10:02:44.919Z,89.01
2023-02-11T10:05:32.261Z,89.63
2023-02-11T10:08:04.715Z,89.32
2023-02-11T10:10:47.693Z,89.00
2023-02-11T10:13:32.289Z,88.56
2023-02-11T10:16:07.084Z,87.85
2023-02-11T10:18:50.060Z,87.18
2023-02-11T10:21:22.904Z,88.02
2023-02-11T10:23:53.888Z,87.26
2023-02-11T10:26:21.589Z,87.24
2023-02-11T10:28:52.141Z,87.68
2023-02-11T10:31:24.682Z,87.16
2023-02-11T10:33:57.830Z,86.72
2023-02-11T10:36:29.058Z,87.20
2023-02-11T10:38:56.732Z,87.57
2023-02-11T10:41:29.840Z,87.38
2023-02-11T10:43:58.026Z,86.77
2023-02-11T10:46:30.246Z,87.33
2023-02-11T10:48:59.705Z,87.09
2023-02-11T10:51:28.953Z,87.47
2023-02-11T10:54:14.368Z,87.84
2023-02-11T10:56:46.204Z,87.30
2023-02-11T10:59:21.389Z,87.92
2023-02-11T11:01:51.802Z,88.68
2023-02-11T11:04:38.657Z,88.00
2023-02-11T11:07:16.132Z,88.62
2023-02-11T11:09:48.076Z,89.20
2023-02-11T11:12:30.232Z,88.75
2023-02-11T11:14:59.354Z,89.52
2023-02-11T11:17:29.154Z,89.24
2023-02-11T11:20:15.406Z,88.50
2023-02-11T11:22:43.777Z,88.78
2023-02-11T11:25:23.295Z,88.77
2023-02-11T11:27:51.868Z,89.31
2023-02-11T11:30:21.048Z,89.01
2023-02-11T11:32:48.833Z,89.30
2023-02-11T11:35:26.588Z,89.33
2023-02-11T11:37:56.110Z,89.96
2023-02-11T11:40:25.123Z,89.34
2023-02-11T11:43:08.508Z,89.16
2023-02-11T11:45:36.118Z,89.50
2023-02-11T11:48:07.162Z,88.72
2023-02-11T11:50:38.936Z,89.40
2023-02-11T11:53:08.814Z,89.28
2023-02-11T11:55:41.627Z,89.04
2023-02-11T11:58:14.528Z,87.85
2023-02-11T12:00:45.905Z,86.58
2023-02-11T12:03:28.589Z,85.94
2023-02-11T12:06:09.307Z,86.72
2023-02-11T12:08:42.769Z,86.29
2023-02-11T12:11:14.321Z,87.03
2023-02-11T12:13:54.365Z,87.96
2023-02-11T12:16:31.870Z,88.88
2023-02-11T12:19:29.064Z,89.55
2023-02-11T12:22:04.362Z,89.36
2023-02-11T12:24:46.385Z,89.61
2023-02-11T12:27:19.180Z,89.41
2023-02-11T12:29:56.896Z,90.12
2023-02-11T12:32:32.023Z,90.59
2023-02-11T12:35:17.137Z,90.72
2023-02-11T12:38:08.216Z,89.86
2023-02-11T12:40:42.750Z,89.45
2023-02-11T12:43:18.886Z,90.37
2023-02-11T12:46:03.465Z,90.50
2023-02-11T12:48:45.967Z,91.37
2023-02-11T12:51:19.665Z,91.40
2023-02-11T12:54:01.164Z,90.65
2023-02-11T12:56:33.052Z,91.17
2023-02-11T12:59:01.894Z,90.53
2023-02-11T13:01:32.693Z,90.25
2023-02-11T13:04:08.574Z,90.89
2023-02-11T13:06:41.377Z,90.22
2023-02-11T13:09:16.602Z,90.80
2023-02-11T13:11:51.650Z,90.26
2023-02-11T13:14:25.639Z,89.82
2023-02-11T13:16:54.063Z,90.82
2023-02-11T13:19:26.661Z,89.80
2023-02-11T13:22:06.509Z,90.25
2023-02-11T13:24:44.212Z,90.43
2023-02-11T13:27:37.775Z,90.76
2023-02-11T13:30:32.520Z,91.04
2023-02-11T13:33:20.236Z,89.67
2023-02-11T13:35:51.227Z,89.84
2023-02-11T13:38:21.505Z,89.63
2023-02-11T13:41:03.057Z,89.78
2023-02-11T13:43:32.707Z,89.40
2023-02-11T13:46:01.767Z,89.02
2023-02-11T13:48:33.207Z,89.78
2023-02-11T13:51:04.731Z,89.34
2023-02-11T13:56:10.025Z,89.16
2023-02-11T13:58:40.346Z,89.64
2023-02-11T14:01:08.836Z,89.62
2023-02-11T14:03:56.220Z,89.35
2023-02-11T14:06:46.354Z,88.96
2023-02-11T14:09:41.944Z,88.69
2023-02-11T14:12:35.447Z,89.13
2023-02-11T14:15:19.539Z,88.96
2023-02-11T14:17:47.296Z,89.48
2023-02-11T14:20:51.241Z,89.66
2023-02-11T14:23:27.213Z,90.19
2023-02-11T14:26:23.780Z,90.11
2023-02-11T14:28:55.753Z,90.22
2023-02-11T14:31:25.650Z,90.35
2023-02-11T14:34:00.539Z,91.36
2023-02-11T14:36:55.782Z,91.33
2023-02-11T14:39:31.380Z,91.97
2023-02-11T14:42:01.397Z,91.86
2023-02-11T14:44:32.025Z,91.61
2023-02-11T14:46:59.836Z,91.56
2023-02-11T14:49:29.045Z,91.94
2023-02-11T14:51:59.149Z,91.90
2023-02-11T14:54:28.867Z,92.01
2023-02-11T14:57:12.488Z,92.04
2023-02-11T14:59:58.829Z,92.98
2023-02-11T15:02:31.395Z,93.55
2023-02-11T15:05:16.071Z,93.61
2023-02-11T15:07:49.107Z,93.87
2023-02-11T15:10:19.843Z,94.05
2023-02-11T15:12:49.911Z,94.00
2023-02-11T15:15:19.175Z,93.46
2023-02-11T15:17:46.977Z,94.02
2023-02-11T15:20:21.211Z,93.83
2023-02-11T15:22:50.571Z,93.81
2023-02-11T15:25:19.945Z,93.78
2023-02-11T15:27:49.198Z,93.59
2023-02-11T15:30:28.439Z,93.73
2023-02-11T15:32:58.910Z,93.91
2023-02-11T15:35:28.954Z,94.34
2023-02-11T15:37:57.838Z,94.02
2023-02-11T15:40:28.401Z,94.33
2023-02-11T15:42:58.771Z,94.56
2023-02-11T15:45:30.554Z,93.56
2023-02-11T15:48:01.305Z,93.84
2023-02-11T15:50:30.774Z,94.17
2023-02-11T15:53:01.982Z,93.89
2023-02-11T15:55:30.204Z,94.29
2023-02-11T15:57:59.124Z,94.39
2023-02-11T16:00:38.011Z,94.76
2023-02-11T16:03:05.930Z,94.26
2023-02-11T16:05:35.366Z,94.64
2023-02-11T16:08:18.949Z,94.59
2023-02-11T16:10:58.236Z,95.65
2023-02-11T16:13:28.127Z,95.99
2023-02-11T16:15:58.752Z,95.88
2023-02-11T16:18:39.863Z,95.36
2023-02-11T16:21:17.354Z,95.24
2023-02-11T16:23:51.244Z,95.31
2023-02-11T16:26:23.804Z,95.01
2023-02-11T16:28:52.177Z,95.46
2023-02-11T16:31:21.402Z,95.31
2023-02-11T16:33:49.093Z,95.45
2023-02-11T16:36:18.251Z,95.21
2023-02-11T16:38:45.929Z,95.62
2023-02-11T16:41:14.299Z,96.17
2023-02-11T16:43:41.972Z,96.12
2023-02-11T16:46:11.173Z,96.69
2023-02-11T16:48:40.284Z,97.02
2023-02-11T16:51:09.639Z,97.13
2023-02-11T16:53:37.325Z,97.22
2023-02-11T16:56:05.410Z,96.35
2023-02-11T16:58:33.668Z,96.77
2023-02-11T17:01:01.811Z,97.18
2023-02-11T17:03:30.229Z,96.65
2023-02-11T17:06:02.804Z,96.26
2023-02-11T17:08:30.660Z,96.23
2023-02-11T17:10:58.315Z,96.58
2023-02-11T17:13:25.950Z,96.63
2023-02-11T17:15:54.030Z,96.54
2023-02-11T17:18:21.919Z,96.35
2023-02-11T17:20:50.086Z,96.21
2023-02-11T17:23:19.137Z,97.00
2023-02-11T17:25:46.855Z,96.90
2023-02-11T17:28:14.538Z,96.82
2023-02-11T17:30:43.978Z,96.49
2023-02-11T17:33:11.660Z,96.75
2023-02-11T17:35:40.857Z,96.47
2023-02-11T17:38:08.512Z,96.98
2023-02-11T17:40:37.489Z,97.09
2023-02-11T17:43:05.226Z,97.34
2023-02-11T17:45:33.055Z,96.99
2023-02-11T17:48:00.998Z,97.61
2023-02-11T17:50:29.522Z,97.35
2023-02-11T17:52:57.765Z,97.49
2023-02-11T17:55:25.645Z,98.31
2023-02-11T17:57:55.354Z,98.36
2023-02-11T18:00:23.604Z,98.33
2023-02-11T18:02:51.228Z,98.18
2023-02-11T18:05:18.962Z,98.34
2023-02-11T18:07:48.004Z,98.34
2023-02-11T18:10:15.826Z,98.81
2023-02-11T18:12:43.625Z,98.37
2023-02-11T18:15:13.322Z,98.55
2023-02-11T18:17:41.026Z,99.28
2023-02-11T18:20:09.913Z,99.49
2023-02-11T18:22:40.168Z,99.51
2023-02-11T18:25:09.391Z,100.00
2023-02-11T18:27:37.229Z,99.88
2023-02-11T18:30:05.422Z,100.00
2023-02-11T18:32:34.474Z,99.84
2023-02-11T18:35:02.205Z,100.00
2023-02-11T18:37:29.785Z,99.55
2023-02-11T18:39:57.404Z,99.34
2023-02-11T18:42:25.035Z,99.49
2023-02-11T18:44:52.745Z,99.68
2023-02-11T18:47:20.442Z,99.33
2023-02-11T18:49:49.392Z,100.00
2023-02-11T18:52:16.974Z,99.59
2023-02-11T18:54:44.672Z,99.04
2023-02-11T18:57:12.333Z,99.73
2023-02-11T18:59:40.032Z,99.34
2023-02-11T19:02:07.734Z,99.60
2023-02-11T19:04:37.199Z,100.00
2023-02-11T19:07:06.329Z,99.75
2023-02-11T19:09:33.895Z,99.69
2023-02-11T19:12:02.232Z,100.00
2023-02-11T19:14:31.995Z,99.97
2023-02-11T19:17:01.241Z,100.00
2023-02-11T19:19:31.331Z,100.00
2023-02-11T19:22:00.245Z,100.00
2023-02-11T19:24:30.357Z,100.00
2023-02-11T19:26:59.646Z,100.00
2023-02-11T19:29:28.041Z,99.98
2023-02-11T19:31:56.329Z,100.00
2023-02-11T19:34:24.140Z,100.00
2023-02-11T19:36:52.048Z,100.00
2023-02-11T19:39:19.729Z,100.00
2023-02-11T19:41:48.795Z,100.00
2023-02-11T19:44:16.696Z,100.00
2023-02-11T19:46:45.881Z,100.00
2023-02-11T19:49:16.018Z,100.00
2023-02-11T19:51:43.596Z,100.00
2023-02-11T19:54:11.261Z,100.00
2023-02-11T19:56:38.937Z,100.00
2023-02-11T19:59:09.111Z,100.00
2023-02-11T20:01:37.428Z,100.00
2023-02-11T20:04:05.228Z,100.00
2023-02-11T20:06:33.957Z,100.00
2023-02-11T20:09:02.646Z,100.00
2023-02-11T20:11:31.711Z,100.00
2023-02-11T20:13:59.668Z,100.00
2023-02-11T20:16:46.179Z,100.00
2023-02-11T20:19:17.995Z,100.00
2023-02-11T20:21:47.079Z,100.00
2023-02-11T20:24:15.934Z,100.00
2023-02-11T20:26:48.165Z,100.00
2023-02-11T20:29:16.304Z,100.00
2023-02-11T20:31:45.676Z,100.00
2023-02-11T20:34:13.608Z,100.00
2023-02-11T20:36:41.947Z,100.00
2023-02-11T20:39:10.016Z,100.00
2023-02-11T20:41:39.851Z,100.00
2023-02-11T20:44:09.293Z,100.00
2023-02-11T20:46:39.911Z,100.00
2023-02-11T20:49:10.551Z,100.00
2023-02-11T20:51:38.292Z,100.00
2023-02-11T20:54:07.132Z,100.00
2023-02-11T20:56:36.520Z,100.00
2023-02-11T20:59:05.049Z,100.00
2023-02-11T21:01:34.756Z,100.00
2023-02-11T21:04:03.682Z,100.00
2023-02-11T21:06:34.976Z,100.00
2023-02-11T21:09:02.790Z,100.00
2023-02-11T21:11:31.106Z,100.00
2023-02-11T21:14:02.257Z,100.00
2023-02-11T21:16:30.150Z,100.00
2023-02-11T21:18:58.023Z,100.00
2023-02-11T21:21:26.344Z,100.00
2023-02-11T21:23:56.080Z,100.00
2023-02-11T21:26:24.115Z,100.00
2023-02-11T21:28:51.974Z,100.00
2023-02-11T21:31:21.708Z,100.00
2023-02-11T21:33:49.772Z,100.00
2023-02-11T21:36:18.011Z,100.00
2023-02-11T21:38:45.709Z,100.00
2023-02-11T21:41:14.640Z,100.00
2023-02-11T21:43:42.450Z,100.00
2023-02-11T21:46:11.286Z,100.00
2023-02-11T21:48:39.036Z,100.00
2023-02-11T21:51:08.132Z,100.00
2023-02-11T21:53:35.962Z,100.00
2023-02-11T21:56:05.433Z,100.00
2023-02-11T21:58:34.595Z,100.00
2023-02-11T22:01:02.379Z,100.00
2023-02-11T22:03:30.055Z,100.00
2023-02-11T22:05:57.843Z,100.00
2023-02-11T22:08:25.645Z,100.00
2023-02-11T22:10:53.361Z,100.00
2023-02-11T22:13:20.985Z,100.00
2023-02-11T22:16:00.138Z,100.00
2023-02-11T22:18:28.078Z,100.00
2023-02-11T22:21:00.183Z,100.00
2023-02-11T22:23:28.013Z,100.00
2023-02-11T22:25:55.907Z,100.00
2023-02-11T22:28:25.333Z,100.00
2023-02-11T22:30:57.109Z,100.00
2023-02-11T22:33:27.121Z,100.00
2023-02-11T22:35:59.427Z,100.00
2023-02-11T22:38:27.199Z,100.00
2023-02-11T22:40:54.806Z,100.00
2023-02-11T22:43:22.670Z,100.00
2023-02-11T22:45:50.908Z,100.00
2023-02-11T22:48:20.780Z,100.00
2023-02-11T22:50:51.799Z,100.00
2023-02-11T22:53:19.633Z,100.00
2023-02-11T22:55:47.271Z,100.00
2023-02-11T22:58:14.915Z,100.00
2023-02-11T23:00:42.720Z,100.00
2023-02-11T23:03:12.376Z,100.00
2023-02-11T23:05:40.793Z,100.00
2023-02-11T23:08:12.437Z,100.00
2023-02-11T23:10:40.827Z,100.00
2023-02-11T23:13:10.218Z,100.00
2023-02-11T23:15:40.310Z,100.00
2023-02-11T23:18:08.300Z,100.00
2023-02-11T23:20:36.251Z,100.00
2023-02-11T23:23:04.312Z,100.00
2023-02-11T23:25:34.064Z,100.00
2023-02-11T23:28:02.497Z,100.00
2023-02-11T23:30:30.218Z,100.00
2023-02-11T23:32:57.926Z,100.00
2023-02-11T23:35:25.629Z,100.00
2023-02-11T23:37:54.171Z,100.00
2023-02-11T23:40:22.377Z,100.00
2023-02-11T23:42:51.301Z,100.00
2023-02-11T23:45:19.142Z,100.00
2023-02-11T23:47:47.570Z,100.00
2023-02-11T23:50:15.576Z,100.00
2023-02-11T23:52:43.235Z,100.00
2023-02-11T23:55:11.155Z,100.00
2023-02-11T23:57:38.787Z,100.00
